Time;durP1;ratioP1;P1;durP2;ratioP2;P2;SDS_P1;SDS_P2;PMS_P1;PMS_P2;Temp;Humidity;BMP_temperature;BMP_pressure;BME280_temperature;BME280_humidity;BME280_pressure;Samples;Min_cycle;Max_cycle;Signal;HPM_P1;HPM_P2
2022/10/08 00:00:06;;;;;;;53.67;12.73;;;;;;;;;;4920878;29;20428;-64
2022/10/08 00:02:39;;;;;;;38.90;11.48;;;;;;;;;;4920818;29;20513;-68
2022/10/08 00:05:06;;;;;;;58.88;12.68;;;;;;;;;;4916449;29;20403;-68
2022/10/08 00:07:32;;;;;;;58.53;13.10;;;;;;;;;;4920551;29;20052;-70
2022/10/08 00:09:59;;;;;;;60.58;13.00;;;;;;;;;;4925284;29;20044;-70
2022/10/08 00:12:25;;;;;;;51.88;12.45;;;;;;;;;;4929013;29;20044;-69
2022/10/08 00:14:52;;;;;;;41.72;12.32;;;;;;;;;;4924359;29;20719;-69
2022/10/08 00:17:19;;;;;;;52.42;13.25;;;;;;;;;;4921888;29;20040;-69
2022/10/08 00:19:45;;;;;;;87.10;14.98;;;;;;;;;;4919673;29;20048;-69
2022/10/08 00:22:12;;;;;;;42.00;12.38;;;;;;;;;;4923396;29;20119;-66
2022/10/08 00:24:39;;;;;;;45.97;13.20;;;;;;;;;;4923704;29;20124;-65
2022/10/08 00:27:05;;;;;;;66.93;13.73;;;;;;;;;;4923732;29;20114;-66
2022/10/08 00:29:32;;;;;;;50.58;12.93;;;;;;;;;;4934279;29;20405;-66
2022/10/08 00:31:58;;;;;;;60.60;14.65;;;;;;;;;;4934500;29;20043;-65
2022/10/08 00:34:25;;;;;;;63.70;13.95;;;;;;;;;;4921390;29;20052;-65
2022/10/08 00:36:53;;;;;;;45.38;13.55;;;;;;;;;;4923767;29;20078;-65
2022/10/08 00:39:20;;;;;;;50.95;13.50;;;;;;;;;;4923472;29;20040;-66
2022/10/08 00:41:48;;;;;;;62.47;14.77;;;;;;;;;;4923518;29;20043;-65
2022/10/08 00:44:33;;;;;;;47.10;14.07;;;;;;;;;;4920680;29;20040;-65
2022/10/08 00:47:00;;;;;;;69.35;15.90;;;;;;;;;;4928327;29;20047;-66
2022/10/08 00:49:26;;;;;;;70.30;15.40;;;;;;;;;;4921033;29;20128;-65
2022/10/08 00:51:57;;;;;;;40.85;14.75;;;;;;;;;;4923660;29;20037;-66
2022/10/08 00:54:23;;;;;;;61.92;15.63;;;;;;;;;;4923025;29;20036;-68
2022/10/08 00:56:51;;;;;;;78.00;16.55;;;;;;;;;;4923456;29;20492;-68
2022/10/08 00:59:18;;;;;;;53.55;14.98;;;;;;;;;;4920892;29;20043;-69
2022/10/08 01:01:45;;;;;;;82.55;17.50;;;;;;;;;;4919071;29;20044;-67
2022/10/08 01:04:13;;;;;;;52.63;15.88;;;;;;;;;;4922831;29;20052;-67
2022/10/08 01:06:47;;;;;;;70.65;16.98;;;;;;;;;;4927850;29;20036;-68
2022/10/08 01:09:15;;;;;;;74.07;17.00;;;;;;;;;;4929020;29;20047;-68
2022/10/08 01:11:47;;;;;;;55.60;16.10;;;;;;;;;;4929292;29;20051;-74
2022/10/08 01:14:19;;;;;;;69.03;17.42;;;;;;;;;;4920194;29;20040;-75
2022/10/08 01:16:53;;;;;;;62.85;17.02;;;;;;;;;;4919083;29;20048;-70
2022/10/08 01:19:41;;;;;;;55.15;17.20;;;;;;;;;;4921547;29;20036;-68
2022/10/08 01:22:07;;;;;;;53.47;17.27;;;;;;;;;;4922701;29;20058;-68
2022/10/08 01:27:44;;;;;;;83.18;18.83;;;;;;;;;;4922565;29;20054;-66
2022/10/08 01:30:15;;;;;;;61.58;18.27;;;;;;;;;;4923134;29;20040;-66
2022/10/08 01:32:53;;;;;;;46.95;17.42;;;;;;;;;;4923089;29;20042;-67
2022/10/08 01:35:23;;;;;;;77.47;18.75;;;;;;;;;;4920107;29;20051;-67
2022/10/08 01:37:54;;;;;;;114.43;20.67;;;;;;;;;;4917766;29;20056;-68
2022/10/08 01:40:24;;;;;;;50.88;17.33;;;;;;;;;;4921540;29;20048;-68
2022/10/08 01:42:52;;;;;;;72.40;19.05;;;;;;;;;;4931520;29;20048;-68
2022/10/08 01:45:25;;;;;;;54.40;17.67;;;;;;;;;;4928208;29;20047;-68
2022/10/08 01:47:53;;;;;;;57.97;17.80;;;;;;;;;;4922668;29;20071;-67
2022/10/08 01:50:28;;;;;;;45.80;17.25;;;;;;;;;;4920047;29;20555;-68
2022/10/08 01:52:57;;;;;;;64.22;18.60;;;;;;;;;;4917620;29;20052;-68
2022/10/08 01:55:33;;;;;;;93.30;20.13;;;;;;;;;;4932434;29;20508;-69
2022/10/08 01:58:02;;;;;;;60.13;19.02;;;;;;;;;;4922840;29;20052;-68
2022/10/08 02:00:29;;;;;;;52.30;17.42;;;;;;;;;;4922545;29;20052;-70
2022/10/08 02:02:56;;;;;;;51.15;18.33;;;;;;;;;;4922690;29;20135;-67
2022/10/08 02:05:23;;;;;;;85.13;19.35;;;;;;;;;;4919892;29;20460;-67
2022/10/08 02:07:49;;;;;;;78.72;18.60;;;;;;;;;;4917257;29;20052;-69
2022/10/08 02:10:23;;;;;;;94.75;20.67;;;;;;;;;;4921156;29;20048;-69
2022/10/08 02:12:49;;;;;;;;;;;;;;;;;;4922721;29;20485;-68
2022/10/08 02:15:21;;;;;;;66.00;18.90;;;;;;;;;;4922203;29;19929;-68
2022/10/08 02:17:56;;;;;;;49.63;16.98;;;;;;;;;;4922080;29;20032;-69
2022/10/08 02:20:23;;;;;;;53.22;17.80;;;;;;;;;;4919903;29;20539;-69
2022/10/08 02:22:52;;;;;;;80.13;19.27;;;;;;;;;;4917357;29;20047;-69
2022/10/08 02:25:27;;;;;;;58.90;18.83;;;;;;;;;;4920710;29;20123;-68
2022/10/08 02:28:02;;;;;;;59.53;17.65;;;;;;;;;;4921950;29;20048;-66
2022/10/08 02:30:33;;;;;;;49.60;17.02;;;;;;;;;;4921805;29;20040;-66
2022/10/08 02:33:03;;;;;;;59.88;17.95;;;;;;;;;;4921763;29;20169;-66
2022/10/08 02:35:38;;;;;;;66.50;17.67;;;;;;;;;;4920559;29;20043;-66
2022/10/08 02:38:08;;;;;;;54.83;16.85;;;;;;;;;;4916804;29;20069;-66
2022/10/08 02:40:37;;;;;;;66.80;18.20;;;;;;;;;;4918237;29;20540;-67
2022/10/08 02:43:07;;;;;;;45.70;16.15;;;;;;;;;;4921867;29;20552;-70
2022/10/08 02:45:46;;;;;;;64.60;17.75;;;;;;;;;;4922891;29;20043;-71
2022/10/08 02:48:17;;;;;;;46.58;16.40;;;;;;;;;;4928291;29;20047;-67
2022/10/08 02:50:45;;;;;;;58.53;17.70;;;;;;;;;;4920928;29;20734;-67
2022/10/08 02:53:13;;;;;;;78.38;18.05;;;;;;;;;;4917050;29;20048;-67
2022/10/08 02:55:39;;;;;;;54.53;17.45;;;;;;;;;;4917356;29;20107;-68
2022/10/08 02:58:08;;;;;;;49.97;18.05;;;;;;;;;;4920796;29;20119;-67
2022/10/08 03:00:37;;;;;;;78.82;20.38;;;;;;;;;;4921302;29;20040;-68
2022/10/08 03:03:08;;;;;;;57.92;18.13;;;;;;;;;;4921147;29;20043;-69
2022/10/08 03:05:35;;;;;;;50.75;16.80;;;;;;;;;;4926378;29;20687;-70
2022/10/08 03:08:04;;;;;;;86.95;19.05;;;;;;;;;;4919079;29;20118;-70
2022/10/08 03:10:33;;;;;;;51.78;17.88;;;;;;;;;;4918573;29;20051;-69
2022/10/08 03:13:00;;;;;;;61.83;19.77;;;;;;;;;;4927662;29;20048;-70
2022/10/08 03:15:27;;;;;;;79.50;20.80;;;;;;;;;;4925787;29;21046;-70
2022/10/08 03:17:54;;;;;;;68.97;20.88;;;;;;;;;;4921093;29;20044;-70
2022/10/08 03:20:22;;;;;;;54.33;19.80;;;;;;;;;;4918477;29;20516;-70
2022/10/08 03:22:48;;;;;;;86.43;22.17;;;;;;;;;;4916300;29;20048;-70
2022/10/08 03:25:15;;;;;;;75.07;20.95;;;;;;;;;;4919939;29;20044;-70
2022/10/08 03:27:42;;;;;;;52.00;19.55;;;;;;;;;;4929016;29;20069;-71
2022/10/08 03:30:08;;;;;;;80.70;21.35;;;;;;;;;;4927654;29;20033;-67
2022/10/08 03:32:35;;;;;;;59.25;19.50;;;;;;;;;;4919690;29;20085;-69
2022/10/08 03:35:01;;;;;;;67.63;22.70;;;;;;;;;;4916323;29;20043;-69
2022/10/08 03:37:28;;;;;;;95.55;24.30;;;;;;;;;;4917765;29;20064;-69
2022/10/08 03:39:54;;;;;;;61.92;22.20;;;;;;;;;;4920029;29;20404;-68
2022/10/08 03:42:21;;;;;;;68.95;22.95;;;;;;;;;;4920446;29;20046;-69
2022/10/08 03:44:47;;;;;;;89.72;24.27;;;;;;;;;;4920263;29;20632;-71
2022/10/08 03:47:14;;;;;;;86.72;26.25;;;;;;;;;;4926899;29;20051;-72
2022/10/08 03:49:40;;;;;;;68.47;24.13;;;;;;;;;;4916575;29;20458;-71
2022/10/08 03:52:07;;;;;;;89.80;27.77;;;;;;;;;;4920562;29;20071;-73
2022/10/08 03:54:34;;;;;;;77.15;26.75;;;;;;;;;;4927284;29;20063;-73
2022/10/08 03:57:01;;;;;;;84.85;28.27;;;;;;;;;;4928746;29;20445;-72
2022/10/08 03:59:28;;;;;;;93.82;29.17;;;;;;;;;;4918773;29;20040;-72
2022/10/08 04:01:54;;;;;;;88.78;28.30;;;;;;;;;;4915753;29;20044;-72
2022/10/08 04:04:21;;;;;;;90.35;29.00;;;;;;;;;;4931909;29;20032;-72
2022/10/08 04:06:51;;;;;;;90.32;30.98;;;;;;;;;;4930975;29;20489;-71
2022/10/08 04:09:17;;;;;;;105.40;32.70;;;;;;;;;;4926016;29;20040;-68
2022/10/08 04:11:44;;;;;;;83.72;31.92;;;;;;;;;;4920859;29;20398;-72
2022/10/08 04:14:10;;;;;;;119.03;32.95;;;;;;;;;;4930911;29;20067;-73
2022/10/08 04:16:37;;;;;;;80.15;31.73;;;;;;;;;;4917070;29;20028;-72
2022/10/08 04:19:03;;;;;;;88.47;31.80;;;;;;;;;;4920242;29;20139;-68
2022/10/08 04:21:30;;;;;;;106.13;31.60;;;;;;;;;;4919849;29;20036;-68
2022/10/08 04:23:57;;;;;;;78.30;29.55;;;;;;;;;;4920374;29;20039;-72
2022/10/08 04:26:23;;;;;;;101.05;30.50;;;;;;;;;;4918266;29;20036;-70
2022/10/08 04:28:50;;;;;;;91.53;30.52;;;;;;;;;;4916130;29;20116;-69
2022/10/08 04:31:17;;;;;;;87.82;30.70;;;;;;;;;;4919368;29;20617;-68
2022/10/08 04:33:45;;;;;;;64.15;27.10;;;;;;;;;;4920611;29;20453;-69
2022/10/08 04:36:18;;;;;;;80.35;28.88;;;;;;;;;;4920464;29;20382;-68
2022/10/08 04:38:45;;;;;;;71.35;27.30;;;;;;;;;;4920233;29;20154;-72
2022/10/08 04:41:13;;;;;;;98.28;29.35;;;;;;;;;;4916921;29;20035;-71
2022/10/08 04:43:40;;;;;;;81.03;26.38;;;;;;;;;;4931581;29;20111;-69
2022/10/08 04:46:08;;;;;;;74.68;26.42;;;;;;;;;;4925789;29;20048;-68
2022/10/08 04:48:35;;;;;;;68.97;26.33;;;;;;;;;;4920342;29;20048;-67
2022/10/08 04:51:03;;;;;;;84.07;26.35;;;;;;;;;;4920143;29;20051;-66
2022/10/08 04:53:35;;;;;;;75.50;26.52;;;;;;;;;;4922579;29;20050;-65
2022/10/08 04:56:08;;;;;;;68.75;26.63;;;;;;;;;;4919509;29;20047;-66
2022/10/08 04:58:34;;;;;;;61.03;24.80;;;;;;;;;;4920802;29;20049;-66
2022/10/08 05:01:02;;;;;;;66.68;22.55;;;;;;;;;;4930401;29;20039;-67
2022/10/08 05:03:28;;;;;;;81.97;25.08;;;;;;;;;;4928201;29;20048;-66
2022/10/08 05:05:55;;;;;;;70.32;22.23;;;;;;;;;;4930023;29;20055;-66
2022/10/08 05:08:21;;;;;;;58.95;22.80;;;;;;;;;;4920748;29;20534;-67
2022/10/08 05:10:48;;;;;;;73.47;21.77;;;;;;;;;;4919275;29;20056;-64
2022/10/08 05:13:14;;;;;;;70.72;22.58;;;;;;;;;;4922664;29;20561;-67
2022/10/08 05:15:41;;;;;;;60.25;20.58;;;;;;;;;;4923275;29;20059;-68
2022/10/08 05:18:07;;;;;;;51.53;20.50;;;;;;;;;;4923574;29;20044;-68
2022/10/08 05:20:35;;;;;;;69.75;20.02;;;;;;;;;;4922205;29;20040;-67
2022/10/08 05:23:01;;;;;;;75.28;22.20;;;;;;;;;;4918749;29;20042;-66
2022/10/08 05:25:32;;;;;;;58.55;20.40;;;;;;;;;;4920975;29;20078;-66
2022/10/08 05:27:58;;;;;;;72.85;20.67;;;;;;;;;;4923250;29;20048;-67
2022/10/08 05:30:25;;;;;;;54.50;19.58;;;;;;;;;;4922994;29;20036;-68
2022/10/08 05:32:52;;;;;;;44.00;18.30;;;;;;;;;;4923050;29;20044;-68
2022/10/08 05:35:18;;;;;;;94.80;20.83;;;;;;;;;;4919859;29;20043;-66
2022/10/08 05:37:45;;;;;;;108.00;21.27;;;;;;;;;;4918064;29;20171;-68
2022/10/08 05:40:11;;;;;;;59.50;18.65;;;;;;;;;;4918513;29;20408;-68
2022/10/08 05:42:38;;;;;;;70.70;18.23;;;;;;;;;;4922717;29;20047;-69
2022/10/08 05:45:04;;;;;;;65.05;18.27;;;;;;;;;;4922968;29;20693;-69
2022/10/08 05:47:31;;;;;;;61.70;19.05;;;;;;;;;;4931151;29;20521;-69
2022/10/08 05:49:57;;;;;;;91.47;20.33;;;;;;;;;;4918277;29;20044;-68
2022/10/08 05:52:25;;;;;;;57.30;17.90;;;;;;;;;;4921310;29;20051;-67
2022/10/08 05:54:52;;;;;;;64.20;19.30;;;;;;;;;;4922658;29;20036;-66
2022/10/08 05:57:18;;;;;;;105.60;22.20;;;;;;;;;;4922017;29;20611;-69
2022/10/08 05:59:45;;;;;;;54.75;18.52;;;;;;;;;;4922554;29;20080;-67
2022/10/08 06:02:11;;;;;;;71.32;18.63;;;;;;;;;;4918524;29;20059;-67
2022/10/08 06:04:38;;;;;;;78.85;19.42;;;;;;;;;;4918167;29;20475;-69
2022/10/08 06:07:04;;;;;;;53.60;16.88;;;;;;;;;;4922557;29;20123;-69
2022/10/08 06:09:31;;;;;;;72.45;17.48;;;;;;;;;;4921981;29;20044;-66
2022/10/08 06:11:58;;;;;;;87.03;16.95;;;;;;;;;;4922251;29;20039;-65
2022/10/08 06:14:25;;;;;;;43.28;14.25;;;;;;;;;;4919992;29;20047;-67
2022/10/08 06:16:52;;;;;;;64.88;16.52;;;;;;;;;;4917968;29;20048;-67
2022/10/08 06:19:18;;;;;;;67.95;15.20;;;;;;;;;;4904108;29;20075;-67
2022/10/08 06:21:45;;;;;;;53.30;14.02;;;;;;;;;;4922203;29;20048;-69
2022/10/08 06:24:12;;;;;;;44.60;13.75;;;;;;;;;;4901124;29;20107;-70
2022/10/08 06:26:39;;;;;;;73.70;16.10;;;;;;;;;;4921235;29;20043;-68
2022/10/08 06:29:16;;;;;;;45.22;14.05;;;;;;;;;;4917868;29;20039;-66
2022/10/08 06:31:43;;;;;;;50.25;14.15;;;;;;;;;;4917792;29;20191;-67
2022/10/08 06:34:10;;;;;;;57.13;14.25;;;;;;;;;;4921966;29;20048;-69
2022/10/08 06:36:36;;;;;;;45.15;13.35;;;;;;;;;;4922258;29;20046;-67
2022/10/08 06:39:05;;;;;;;48.90;12.88;;;;;;;;;;4921553;29;20095;-67
2022/10/08 06:41:33;;;;;;;70.03;14.13;;;;;;;;;;4919575;29;20047;-67
2022/10/08 06:44:01;;;;;;;62.03;13.38;;;;;;;;;;4917235;29;20113;-67
2022/10/08 06:46:30;;;;;;;77.38;13.43;;;;;;;;;;4928066;29;20044;-67
2022/10/08 06:48:57;;;;;;;55.20;12.07;;;;;;;;;;4922939;29;20519;-66
2022/10/08 06:51:23;;;;;;;52.53;12.27;;;;;;;;;;4921347;29;20072;-66
2022/10/08 06:53:52;;;;;;;55.15;13.43;;;;;;;;;;4921094;29;20044;-67
2022/10/08 06:56:18;;;;;;;53.20;12.18;;;;;;;;;;4917880;29;20082;-67
2022/10/08 06:58:46;;;;;;;43.65;11.27;;;;;;;;;;4923361;29;20059;-67
2022/10/08 07:01:14;;;;;;;48.53;12.48;;;;;;;;;;4929736;29;20389;-68
2022/10/08 07:03:41;;;;;;;55.95;13.20;;;;;;;;;;4924975;29;20048;-68
2022/10/08 07:06:09;;;;;;;45.65;11.48;;;;;;;;;;4921860;29;20046;-67
2022/10/08 07:08:35;;;;;;;38.70;11.48;;;;;;;;;;4920091;29;20415;-67
2022/10/08 07:11:07;;;;;;;56.38;12.77;;;;;;;;;;4917021;29;20051;-67
2022/10/08 07:13:34;;;;;;;71.22;13.75;;;;;;;;;;4918842;29;20076;-67
2022/10/08 07:16:02;;;;;;;41.33;12.20;;;;;;;;;;4921380;29;20045;-68
2022/10/08 07:18:29;;;;;;;41.88;12.50;;;;;;;;;;4921735;29;20043;-68
2022/10/08 07:20:56;;;;;;;68.38;13.70;;;;;;;;;;4921363;29;20043;-68
2022/10/08 07:23:23;;;;;;;56.80;13.27;;;;;;;;;;4918024;29;20595;-68
2022/10/08 07:25:56;;;;;;;60.53;13.15;;;;;;;;;;4917177;29;20048;-68
2022/10/08 07:28:24;;;;;;;84.35;14.25;;;;;;;;;;4920313;29;20420;-70
2022/10/08 07:30:50;;;;;;;50.10;13.10;;;;;;;;;;4921171;29;20051;-67
2022/10/08 07:33:16;;;;;;;59.40;13.70;;;;;;;;;;4921325;29;20044;-67
2022/10/08 07:35:43;;;;;;;44.90;12.50;;;;;;;;;;4920872;29;20408;-69
2022/10/08 07:38:09;;;;;;;79.70;15.07;;;;;;;;;;4916004;29;20107;-67
2022/10/08 07:40:36;;;;;;;44.42;12.85;;;;;;;;;;4918114;29;20048;-69
2022/10/08 07:43:03;;;;;;;42.90;12.13;;;;;;;;;;4921400;29;20040;-69
2022/10/08 07:45:30;;;;;;;72.13;15.57;;;;;;;;;;4921469;29;20043;-68
2022/10/08 07:47:57;;;;;;;35.38;12.77;;;;;;;;;;4930253;29;20067;-69
2022/10/08 07:50:23;;;;;;;59.47;14.65;;;;;;;;;;4918255;29;20054;-69
2022/10/08 07:52:50;;;;;;;50.03;11.75;;;;;;;;;;4916225;29;20044;-67
2022/10/08 07:55:16;;;;;;;58.75;13.38;;;;;;;;;;4920056;29;20052;-69
2022/10/08 07:57:43;;;;;;;33.13;12.07;;;;;;;;;;4920813;29;20076;-70
2022/10/08 08:00:09;;;;;;;56.05;13.52;;;;;;;;;;4926836;29;20072;-67
2022/10/08 08:02:39;;;;;;;45.20;13.02;;;;;;;;;;4919841;29;20043;-67
2022/10/08 08:05:05;;;;;;;54.88;14.00;;;;;;;;;;4916296;29;20086;-67
2022/10/08 08:07:32;;;;;;;64.90;13.48;;;;;;;;;;4918197;29;20051;-67
2022/10/08 08:09:58;;;;;;;44.17;12.73;;;;;;;;;;4920730;29;20052;-69
2022/10/08 08:12:25;;;;;;;31.35;12.32;;;;;;;;;;4920637;29;20051;-67
2022/10/08 08:14:51;;;;;;;46.83;13.02;;;;;;;;;;4920550;29;20058;-67
2022/10/08 08:17:18;;;;;;;65.60;14.82;;;;;;;;;;4916996;29;20044;-67
2022/10/08 08:19:44;;;;;;;49.35;12.77;;;;;;;;;;4916741;29;20055;-67
2022/10/08 08:22:11;;;;;;;56.95;13.32;;;;;;;;;;4899877;29;20041;-67
2022/10/08 08:24:37;;;;;;;48.22;12.38;;;;;;;;;;4919950;29;20635;-69
2022/10/08 08:27:04;;;;;;;58.05;13.40;;;;;;;;;;4921577;29;20489;-67
2022/10/08 08:29:30;;;;;;;60.38;12.40;;;;;;;;;;4921935;29;20044;-69
2022/10/08 08:31:57;;;;;;;86.03;14.05;;;;;;;;;;4935081;29;20044;-67
2022/10/08 08:34:23;;;;;;;48.47;12.55;;;;;;;;;;4923008;29;20160;-70
2022/10/08 08:36:52;;;;;;;62.53;13.05;;;;;;;;;;4931562;29;20059;-69
2022/10/08 08:39:20;;;;;;;75.75;13.88;;;;;;;;;;4929416;29;20039;-69
2022/10/08 08:41:53;;;;;;;42.38;11.95;;;;;;;;;;4923797;29;20130;-69
2022/10/08 08:44:21;;;;;;;48.38;11.38;;;;;;;;;;4920366;29;20126;-67
2022/10/08 08:46:55;;;;;;;50.67;12.70;;;;;;;;;;4930183;29;20050;-68
2022/10/08 08:49:22;;;;;;;59.65;12.00;;;;;;;;;;4922653;29;20048;-67
2022/10/08 08:51:49;;;;;;;70.63;15.00;;;;;;;;;;4923615;29;20077;-67
2022/10/08 08:54:15;;;;;;;47.53;12.32;;;;;;;;;;4924221;29;20051;-68
2022/10/08 08:56:42;;;;;;;42.92;11.00;;;;;;;;;;4934598;29;20046;-70
2022/10/08 08:59:44;;;;;;;79.80;13.07;;;;;;;;;;4925128;29;20040;-66
2022/10/08 09:02:31;;;;;;;67.97;13.60;;;;;;;;;;4853424;29;20050;-66
2022/10/08 09:05:03;;;;;;;57.67;13.13;;;;;;;;;;4838529;29;20535;-67
2022/10/08 09:07:50;;;;;;;56.47;12.18;;;;;;;;;;4838049;29;20046;-68
2022/10/08 09:10:21;;;;;;;46.60;11.75;;;;;;;;;;4837663;29;20062;-68
2022/10/08 09:12:50;;;;;;;78.15;13.68;;;;;;;;;;4837697;29;20082;-69
2022/10/08 09:15:22;;;;;;;48.50;11.50;;;;;;;;;;4837635;29;20069;-68
2022/10/08 09:17:50;;;;;;;43.05;10.55;;;;;;;;;;4848272;29;20064;-69
2022/10/08 09:20:18;;;;;;;76.05;13.70;;;;;;;;;;4837955;29;20046;-69
2022/10/08 09:22:45;;;;;;;54.75;12.20;;;;;;;;;;4823377;29;20054;-69
2022/10/08 09:25:13;;;;;;;45.47;11.07;;;;;;;;;;4838574;29;20049;-69
2022/10/08 09:27:45;;;;;;;68.18;12.63;;;;;;;;;;4822894;29;20049;-69
2022/10/08 09:30:29;;;;;;;38.85;11.10;;;;;;;;;;4838087;29;20629;-69
2022/10/08 09:32:58;;;;;;;62.45;12.13;;;;;;;;;;4838093;29;20514;-69
2022/10/08 09:35:25;;;;;;;49.70;11.05;;;;;;;;;;4850579;29;20044;-69
2022/10/08 09:37:52;;;;;;;85.40;13.75;;;;;;;;;;4933040;29;20075;-69
2022/10/08 09:40:23;;;;;;;83.05;13.43;;;;;;;;;;4920475;29;20048;-69
2022/10/08 09:43:08;;;;;;;44.95;10.25;;;;;;;;;;4921550;29;20075;-69
2022/10/08 09:45:39;;;;;;;72.70;12.90;;;;;;;;;;4923271;29;20063;-69
2022/10/08 09:48:15;;;;;;;66.80;12.02;;;;;;;;;;4930664;29;20523;-69
2022/10/08 09:51:05;;;;;;;50.90;11.02;;;;;;;;;;4921030;29;20040;-69
2022/10/08 09:53:52;;;;;;;69.47;11.75;;;;;;;;;;4925663;29;20055;-69
2022/10/08 09:56:26;;;;;;;54.05;10.75;;;;;;;;;;4921314;29;20449;-69
2022/10/08 09:58:52;;;;;;;50.60;11.05;;;;;;;;;;4918536;29;20043;-69
2022/10/08 10:01:19;;;;;;;71.90;12.93;;;;;;;;;;4921945;29;20655;-69
2022/10/08 10:03:47;;;;;;;46.78;10.48;;;;;;;;;;4922675;29;20050;-69
2022/10/08 10:06:14;;;;;;;44.45;9.85;;;;;;;;;;4923046;29;20040;-69
2022/10/08 10:08:47;;;;;;;50.90;10.85;;;;;;;;;;4922117;29;20051;-69
2022/10/08 10:11:19;;;;;;;40.42;9.32;;;;;;;;;;4933407;29;20049;-69
2022/10/08 10:13:47;;;;;;;71.78;11.20;;;;;;;;;;4918229;29;20135;-68
2022/10/08 10:16:26;;;;;;;64.93;11.52;;;;;;;;;;4922074;29;20441;-69
2022/10/08 10:19:02;;;;;;;30.02;9.23;;;;;;;;;;4922452;29;20040;-71
2022/10/08 10:21:34;;;;;;;43.65;10.43;;;;;;;;;;4922078;29;20128;-70
2022/10/08 10:24:07;;;;;;;25.92;8.93;;;;;;;;;;4922539;29;20042;-69
2022/10/08 10:26:36;;;;;;;67.53;12.32;;;;;;;;;;4920410;29;20051;-70
2022/10/08 10:29:07;;;;;;;53.05;10.98;;;;;;;;;;4933347;29;20044;-70
2022/10/08 10:31:36;;;;;;;49.97;9.90;;;;;;;;;;4919945;29;20052;-69
2022/10/08 10:34:03;;;;;;;58.53;11.57;;;;;;;;;;4921910;29;20040;-69
2022/10/08 10:36:31;;;;;;;44.80;12.48;;;;;;;;;;4921912;29;20062;-69
2022/10/08 10:39:16;;;;;;;45.45;10.52;;;;;;;;;;4921335;29;20050;-69
2022/10/08 10:41:49;;;;;;;36.78;9.30;;;;;;;;;;4921118;29;20055;-69
2022/10/08 10:44:18;;;;;;;53.63;11.30;;;;;;;;;;4932796;29;20594;-70
2022/10/08 10:46:50;;;;;;;47.67;9.73;;;;;;;;;;4929516;29;20078;-70
2022/10/08 10:49:21;;;;;;;78.47;11.70;;;;;;;;;;4921296;29;20051;-69
2022/10/08 10:52:06;;;;;;;78.85;11.80;;;;;;;;;;4921628;29;20056;-69
2022/10/08 10:54:35;;;;;;;54.63;10.80;;;;;;;;;;4924077;29;20043;-70
2022/10/08 10:57:10;;;;;;;63.05;13.40;;;;;;;;;;4930565;29;20051;-69
2022/10/08 10:59:45;;;;;;;47.03;10.70;;;;;;;;;;4920450;29;20048;-69
2022/10/08 11:02:11;;;;;;;87.40;12.73;;;;;;;;;;4917100;29;20044;-69
2022/10/08 11:04:41;;;;;;;47.95;10.85;;;;;;;;;;4919334;29;20052;-69
2022/10/08 11:07:19;;;;;;;71.13;10.77;;;;;;;;;;4921469;29;20055;-69
2022/10/08 11:09:45;;;;;;;66.15;11.95;;;;;;;;;;4921070;29;20056;-69
2022/10/08 11:12:14;;;;;;;38.05;9.63;;;;;;;;;;4921488;29;20036;-69
2022/10/08 11:15:20;;;;;;;67.38;19.50;;;;;;;;;;4920273;29;20046;-70
2022/10/08 11:18:00;;;;;;;50.03;11.77;;;;;;;;;;4873072;29;20143;-68
2022/10/08 11:20:29;;;;;;;36.28;11.07;;;;;;;;;;4875499;29;20045;-69
2022/10/08 11:22:56;;;;;;;65.03;12.00;;;;;;;;;;4864421;29;20060;-69
2022/10/08 11:25:27;;;;;;;80.75;12.85;;;;;;;;;;4873384;29;20060;-69
2022/10/08 11:27:57;;;;;;;42.08;10.85;;;;;;;;;;4864783;29;20582;-70
2022/10/08 11:30:42;;;;;;;51.25;10.82;;;;;;;;;;4866539;29;20053;-69
2022/10/08 11:33:11;;;;;;;38.28;11.07;;;;;;;;;;4876130;29;20177;-69
2022/10/08 11:35:48;;;;;;;59.70;12.77;;;;;;;;;;4872892;29;20106;-69
2022/10/08 11:38:28;;;;;;;57.10;12.63;;;;;;;;;;4872367;29;20116;-70
2022/10/08 11:40:56;;;;;;;69.40;12.63;;;;;;;;;;4873051;29;20411;-70
2022/10/08 11:43:37;;;;;;;65.65;12.25;;;;;;;;;;4873391;29;20049;-68
2022/10/08 11:46:27;;;;;;;38.10;10.45;;;;;;;;;;4872397;29;20105;-69
2022/10/08 11:48:55;;;;;;;53.45;11.75;;;;;;;;;;4896512;29;20056;-69
2022/10/08 11:51:22;;;;;;;59.00;12.27;;;;;;;;;;4903658;29;20099;-68
2022/10/08 11:53:57;;;;;;;54.83;13.38;;;;;;;;;;4926105;29;20445;-69
2022/10/08 11:56:24;;;;;;;41.22;13.60;;;;;;;;;;4931890;29;20036;-69
2022/10/08 11:58:52;;;;;;;56.58;13.07;;;;;;;;;;4916829;29;20044;-69
2022/10/08 12:01:19;;;;;;;61.92;11.90;;;;;;;;;;4920317;29;20464;-68
2022/10/08 12:03:58;;;;;;;50.00;11.15;;;;;;;;;;4924645;29;20501;-69
2022/10/08 12:06:26;;;;;;;58.88;12.00;;;;;;;;;;4924636;29;20036;-69
2022/10/08 12:08:53;;;;;;;52.55;11.15;;;;;;;;;;4924568;29;20052;-69
2022/10/08 12:11:36;;;;;;;37.92;9.90;;;;;;;;;;4920892;29;20369;-69
2022/10/08 12:14:11;;;;;;;58.65;11.90;;;;;;;;;;4935874;29;20476;-69
2022/10/08 12:17:01;;;;;;;59.67;12.18;;;;;;;;;;4936273;29;20062;-69
2022/10/08 12:19:34;;;;;;;66.80;12.10;;;;;;;;;;4923782;29;20638;-69
2022/10/08 12:22:02;;;;;;;48.20;11.40;;;;;;;;;;4908792;29;20100;-68
2022/10/08 12:24:38;;;;;;;69.53;13.02;;;;;;;;;;4924176;29;20520;-69
2022/10/08 12:27:16;;;;;;;73.38;13.82;;;;;;;;;;4924372;29;20058;-69
2022/10/08 12:29:53;;;;;;;56.47;12.80;;;;;;;;;;4902482;29;20147;-70
2022/10/08 12:32:22;;;;;;;41.95;12.52;;;;;;;;;;4918198;29;20110;-69
2022/10/08 12:34:48;;;;;;;63.63;13.57;;;;;;;;;;4920093;29;20067;-70
2022/10/08 12:37:33;;;;;;;43.50;10.68;;;;;;;;;;4924222;29;20052;-68
2022/10/08 12:40:08;;;;;;;41.50;11.77;;;;;;;;;;4924145;29;20128;-68
2022/10/08 12:42:36;;;;;;;48.75;12.93;;;;;;;;;;4924346;29;20044;-68
2022/10/08 12:45:21;;;;;;;49.65;13.65;;;;;;;;;;4924041;29;20385;-70
2022/10/08 12:47:53;;;;;;;48.65;12.38;;;;;;;;;;4923940;29;20420;-69
2022/10/08 12:50:37;;;;;;;34.47;11.02;;;;;;;;;;4934960;29;20067;-70
2022/10/08 12:53:04;;;;;;;60.42;13.57;;;;;;;;;;4908741;29;20058;-70
2022/10/08 12:55:36;;;;;;;76.18;13.82;;;;;;;;;;4922189;29;20050;-69
2022/10/08 12:58:03;;;;;;;99.17;14.83;;;;;;;;;;4923944;29;20056;-70
2022/10/08 13:00:32;;;;;;;38.28;11.18;;;;;;;;;;4924208;29;20040;-70
2022/10/08 13:02:59;;;;;;;45.78;11.98;;;;;;;;;;4924312;29;20043;-70
2022/10/08 13:05:36;;;;;;;69.82;13.48;;;;;;;;;;4920292;29;20679;-69
2022/10/08 13:08:23;;;;;;;68.70;13.95;;;;;;;;;;4922463;29;20063;-70
2022/10/08 13:10:49;;;;;;;47.28;15.30;;;;;;;;;;4931431;29;20084;-69
2022/10/08 13:13:41;;;;;;;55.40;17.02;;;;;;;;;;4923608;29;20040;-70
2022/10/08 13:16:11;;;;;;;46.58;13.15;;;;;;;;;;4923868;29;20048;-69
2022/10/08 13:18:40;;;;;;;59.15;14.75;;;;;;;;;;4923730;29;20485;-69
2022/10/08 13:21:23;;;;;;;54.33;14.27;;;;;;;;;;4923474;29;20114;-69
2022/10/08 13:23:49;;;;;;;52.15;14.30;;;;;;;;;;4923026;29;20047;-69
2022/10/08 13:26:54;;;;;;;65.18;17.05;;;;;;;;;;4933910;29;20630;-70
2022/10/08 13:29:21;;;;;;;115.88;20.73;;;;;;;;;;4852052;29;20048;-69
2022/10/08 13:31:56;;;;;;;82.28;18.45;;;;;;;;;;4839251;29;20054;-69
2022/10/08 13:34:25;;;;;;;92.43;16.52;;;;;;;;;;4838395;29;20081;-69
2022/10/08 13:36:54;;;;;;;70.45;14.52;;;;;;;;;;4840578;29;20540;-69
2022/10/08 13:39:22;;;;;;;68.80;15.30;;;;;;;;;;4837662;29;20458;-69
2022/10/08 13:41:49;;;;;;;67.95;16.83;;;;;;;;;;4838161;29;20054;-69
2022/10/08 13:44:18;;;;;;;62.00;14.55;;;;;;;;;;4852792;29;20042;-69
2022/10/08 13:46:44;;;;;;;58.97;15.45;;;;;;;;;;4838528;29;20054;-69
2022/10/08 13:49:20;;;;;;;49.53;15.88;;;;;;;;;;4837107;29;20069;-68
2022/10/08 13:51:47;;;;;;;73.65;18.77;;;;;;;;;;4837767;29;20469;-69
2022/10/08 13:54:27;;;;;;;42.55;16.02;;;;;;;;;;4837876;29;20050;-69
2022/10/08 13:56:53;;;;;;;95.43;16.70;;;;;;;;;;4837491;29;20054;-69
2022/10/08 13:59:20;;;;;;;80.82;16.90;;;;;;;;;;4850976;29;20063;-69
2022/10/08 14:01:47;;;;;;;47.97;15.15;;;;;;;;;;4919611;29;20527;-69
2022/10/08 14:04:14;;;;;;;80.40;16.42;;;;;;;;;;4922443;29;20048;-69
2022/10/08 14:06:42;;;;;;;48.50;14.68;;;;;;;;;;4922992;29;20051;-69
2022/10/08 14:09:12;;;;;;;72.35;17.60;;;;;;;;;;4922507;29;20044;-70
2022/10/08 14:11:40;;;;;;;85.35;18.42;;;;;;;;;;4920645;29;20051;-69
2022/10/08 14:14:09;;;;;;;58.17;17.65;;;;;;;;;;4918202;29;20044;-70
2022/10/08 14:16:35;;;;;;;62.90;18.05;;;;;;;;;;4920642;29;20055;-67
2022/10/08 14:19:02;;;;;;;94.40;24.00;;;;;;;;;;4921819;29;20481;-70
2022/10/08 14:21:34;;;;;;;89.13;23.15;;;;;;;;;;4921724;29;20048;-69
2022/10/08 14:24:01;;;;;;;60.88;19.75;;;;;;;;;;4921598;29;20039;-69
2022/10/08 14:26:29;;;;;;;66.38;19.08;;;;;;;;;;4918380;29;20040;-68
2022/10/08 14:28:55;;;;;;;69.10;21.95;;;;;;;;;;4917609;29;20054;-68
2022/10/08 14:31:22;;;;;;;73.20;19.42;;;;;;;;;;4921424;29;20059;-68
2022/10/08 14:33:49;;;;;;;63.58;19.52;;;;;;;;;;4922134;29;20048;-68
2022/10/08 14:36:17;;;;;;;67.88;19.15;;;;;;;;;;4922599;29;20055;-68